Time;durP1;ratioP1;P1;durP2;ratioP2;P2;SDS_P1;SDS_P2;PMS_P1;PMS_P2;Temp;Humidity;BMP_temperature;BMP_pressure;BME280_temperature;BME280_humidity;BME280_pressure;Samples;Min_cycle;Max_cycle;Signal;HPM_P1;HPM_P2
2023/03/09 00:01:19;;;;;;;;;;;;;;;9.76;100.00;98704.03;5589987;31;34326;-66
2023/03/09 00:04:26;;;;;;;;;;;;;;;9.81;100.00;98698.94;5590706;31;34233;-67
2023/03/09 00:07:33;;;;;;;;;;;;;;;9.90;100.00;98701.19;5590785;31;34254;-66
2023/03/09 00:10:40;;;;;;;;;;;;;;;9.96;100.00;98702.19;5590346;31;34153;-67
2023/03/09 00:13:49;;;;;;;;;;;;;;;9.90;100.00;98700.34;5590594;31;34037;-66
2023/03/09 00:16:58;;;;;;;;;;;;;;;9.90;100.00;98697.72;5589902;31;34303;-66
2023/03/09 00:20:17;;;;;;;;;;;;;;;9.90;100.00;98703.81;5590429;31;34237;-67
2023/03/09 00:23:24;;;;;;;;;;;;;;;10.04;100.00;98707.28;5590552;31;34260;-67
2023/03/09 00:26:38;;;;;;;;;;;;;;;10.02;100.00;98707.47;5590750;31;34275;-67
2023/03/09 00:29:48;;;;;;;;;;;;;;;9.93;100.00;98699.94;5589400;31;32917;-67
2023/03/09 00:32:55;;;;;;;;;;;;;;;9.88;100.00;98702.38;5590435;31;34243;-67
2023/03/09 00:36:01;;;;;;;;;;;;;;;9.93;100.00;98695.47;5589623;31;34883;-67
2023/03/09 00:39:07;;;;;;;;;;;;;;;9.93;100.00;98695.47;5590344;31;34797;-66
2023/03/09 00:42:16;;;;;;;;;;;;;;;10.06;100.00;98694.66;5589434;31;34424;-67
2023/03/09 00:45:27;;;;;;;;;;;;;;;10.05;100.00;98687.72;5590311;31;34619;-67
2023/03/09 00:48:36;;;;;;;;;;;;;;;10.10;100.00;98687.91;5589528;31;34281;-67
2023/03/09 00:51:43;;;;;;;;;;;;;;;10.01;100.00;98687.31;5589399;31;34825;-67
2023/03/09 00:54:53;;;;;;;;;;;;;;;9.89;100.00;98681.00;5590141;31;34216;-67
2023/03/09 00:58:01;;;;;;;;;;;;;;;9.97;100.00;98683.44;5590224;31;34225;-66
2023/03/09 01:01:08;;;;;;;;;;;;;;;10.02;100.00;98683.63;5590202;31;34585;-67
2023/03/09 01:04:16;;;;;;;;;;;;;;;10.01;100.00;98682.03;5590231;31;34227;-67
2023/03/09 01:07:22;;;;;;;;;;;;;;;9.97;100.00;98677.34;5589971;31;34181;-66
2023/03/09 01:10:30;;;;;;;;;;;;;;;9.99;100.00;98670.81;5590113;31;34293;-67
2023/03/09 01:13:37;;;;;;;;;;;;;;;9.83;100.00;98683.63;5589983;31;35078;-67
2023/03/09 01:16:41;;;;;;;;;;;;;;;9.88;100.00;98675.91;5589228;31;34184;-67
2023/03/09 01:19:51;;;;;;;;;;;;;;;9.90;100.00;98676.53;5589849;31;34453;-67
2023/03/09 01:23:02;;;;;;;;;;;;;;;9.87;100.00;98674.28;5589873;31;34349;-67
2023/03/09 01:26:12;;;;;;;;;;;;;;;9.76;100.00;98670.41;5589300;31;34895;-67
2023/03/09 01:29:20;;;;;;;;;;;;;;;9.68;100.00;98656.56;5589139;31;34120;-66
2023/03/09 01:32:30;;;;;;;;;;;;;;;9.62;100.00;98658.19;5589831;31;34419;-66
2023/03/09 01:35:45;;;;;;;;;;;;;;;9.67;100.00;98634.56;5589822;31;34899;-66
2023/03/09 01:38:51;;;;;;;;;;;;;;;9.76;100.00;98632.53;5589125;31;34776;-67
2023/03/09 01:41:59;;;;;;;;;;;;;;;9.70;100.00;98636.81;5589702;31;34829;-66
2023/03/09 01:45:26;;;;;;;;;;;;;;;9.82;100.00;98640.47;5589702;31;34427;-67
2023/03/09 01:48:32;;;;;;;;;;;;;;;9.86;100.00;98636.41;5588883;31;34106;-66
2023/03/09 01:51:41;;;;;;;;;;;;;;;9.70;100.00;98625.41;5589052;31;34264;-67
2023/03/09 01:54:58;;;;;;;;;;;;;;;9.74;100.00;98616.84;5589709;31;34182;-66
2023/03/09 01:58:11;;;;;;;;;;;;;;;9.73;100.00;98617.06;5589220;31;34853;-67
2023/03/09 02:01:21;;;;;;;;;;;;;;;9.64;100.00;98613.78;5588653;31;34246;-66
2023/03/09 02:04:37;;;;;;;;;;;;;;;9.85;100.00;98616.22;5589496;31;34671;-66
2023/03/09 02:07:46;;;;;;;;;;;;;;;9.91;100.00;98607.47;5589603;31;34202;-66
2023/03/09 02:10:55;;;;;;;;;;;;;;;9.83;100.00;98598.91;5589250;31;34593;-67
2023/03/09 02:14:01;;;;;;;;;;;;;;;9.86;100.00;98599.31;5589425;31;33946;-67
2023/03/09 02:17:13;;;;;;;;;;;;;;;9.95;100.00;98599.91;5589345;31;34825;-66
2023/03/09 02:20:22;;;;;;;;;;;;;;;9.97;100.00;98589.94;5589280;31;34340;-66
2023/03/09 02:23:34;;;;;;;;;;;;;;;9.94;100.00;98591.13;5589788;31;34237;-66
2023/03/09 02:27:08;;;;;;;;;;;;;;;9.91;100.00;98586.28;5589294;31;34260;-67
2023/03/09 02:30:13;;;;;;;;;;;;;;;9.93;100.00;98575.44;5587944;31;34223;-66
2023/03/09 02:33:25;;;;;;;;;;;;;;;9.91;100.00;98580.16;5589273;31;34909;-66
2023/03/09 02:36:34;;;;;;;;;;;;;;;9.83;100.00;98562.63;5589133;31;34243;-66
2023/03/09 02:39:47;;;;;;;;;;;;;;;9.82;100.00;98570.81;5589102;31;34929;-66
2023/03/09 02:42:54;;;;;;;;;;;;;;;9.83;100.00;98567.13;5588290;31;34277;-66
2023/03/09 02:46:01;;;;;;;;;;;;;;;9.85;100.00;98571.19;5588366;31;34667;-66
2023/03/09 02:49:13;;;;;;;;;;;;;;;9.79;100.00;98558.78;5589034;31;34903;-66
2023/03/09 02:52:22;;;;;;;;;;;;;;;9.72;100.00;98560.63;5588296;31;33168;-66
2023/03/09 02:55:32;;;;;;;;;;;;;;;9.63;100.00;98574.31;5588942;31;34230;-66
2023/03/09 02:58:43;;;;;;;;;;;;;;;9.55;100.00;98577.94;5588848;31;34321;-66
2023/03/09 03:01:53;;;;;;;;;;;;;;;9.45;100.00;98588.12;5588704;31;34772;-66
2023/03/09 03:05:01;;;;;;;;;;;;;;;9.38;100.00;98582.03;5587824;31;34403;-66
2023/03/09 03:08:09;;;;;;;;;;;;;;;9.26;100.00;98592.41;5588650;31;32830;-66
2023/03/09 03:11:19;;;;;;;;;;;;;;;9.22;100.00;98590.37;5588630;31;32982;-66
2023/03/09 03:14:27;;;;;;;;;;;;;;;9.16;100.00;98578.78;5589935;31;34293;-67
2023/03/09 03:17:37;;;;;;;;;;;;;;;8.92;100.00;98588.09;5590415;31;34824;-66
2023/03/09 03:20:44;;;;;;;;;;;;;;;8.89;100.00;98600.91;5590713;31;35182;-66
2023/03/09 03:23:53;;;;;;;;;;;;;;;8.80;100.00;98599.47;5591060;31;34953;-66
2023/03/09 03:27:03;;;;;;;;;;;;;;;8.81;100.00;98598.47;5591043;31;34978;-66
2023/03/09 03:30:10;;;;;;;;;;;;;;;8.67;100.00;98579.91;5577734;31;34287;-67
2023/03/09 03:33:19;;;;;;;;;;;;;;;8.56;100.00;98590.25;5590265;31;34808;-66
2023/03/09 03:36:28;;;;;;;;;;;;;;;8.47;100.00;98589.59;5590992;31;34666;-67
2023/03/09 03:39:37;;;;;;;;;;;;;;;8.45;100.00;98590.81;5590883;31;34109;-66
2023/03/09 03:42:44;;;;;;;;;;;;;;;8.45;100.00;98596.91;5590729;31;34869;-66
2023/03/09 03:45:55;;;;;;;;;;;;;;;8.41;100.00;98600.97;5590744;31;34753;-66
2023/03/09 03:49:06;;;;;;;;;;;;;;;8.30;100.00;98612.09;5590053;31;34886;-66
2023/03/09 03:52:16;;;;;;;;;;;;;;;8.31;100.00;98612.91;5590684;31;34041;-67
2023/03/09 03:55:34;;;;;;;;;;;;;;;8.25;100.00;98620.56;5590693;31;34821;-66
2023/03/09 03:58:41;;;;;;;;;;;;;;;8.25;100.00;98606.56;5589979;31;35172;-66
2023/03/09 04:01:51;;;;;;;;;;;;;;;8.32;100.00;98593.41;5590809;31;34902;-67
2023/03/09 04:05:00;;;;;;;;;;;;;;;8.23;100.00;98601.44;5577410;31;33430;-66
2023/03/09 04:08:08;;;;;;;;;;;;;;;8.14;100.00;98605.28;5589774;31;34442;-67
2023/03/09 04:11:21;;;;;;;;;;;;;;;8.08;100.00;98597.34;5589653;31;34464;-66
2023/03/09 04:14:34;;;;;;;;;;;;;;;8.02;100.00;98606.03;5590402;31;34304;-66
2023/03/09 04:17:47;;;;;;;;;;;;;;;7.96;100.00;98604.16;5589772;31;34632;-66
2023/03/09 04:20:56;;;;;;;;;;;;;;;7.93;100.00;98586.88;5589688;31;34684;-67
2023/03/09 04:24:03;;;;;;;;;;;;;;;7.93;100.00;98589.53;5590336;31;34425;-66
2023/03/09 04:27:09;;;;;;;;;;;;;;;7.93;100.00;98583.44;5589428;31;34328;-65
2023/03/09 04:30:20;;;;;;;;;;;;;;;7.88;100.00;98573.44;5589999;31;33789;-66
2023/03/09 04:33:27;;;;;;;;;;;;;;;7.81;100.00;98570.75;5590307;31;35046;-65
2023/03/09 04:36:36;;;;;;;;;;;;;;;7.84;100.00;98575.66;5589530;31;34276;-67
2023/03/09 04:39:46;;;;;;;;;;;;;;;7.73;100.00;98581.50;5589621;31;33855;-67
2023/03/09 04:42:57;;;;;;;;;;;;;;;7.73;100.00;98570.94;5590154;31;34811;-68
2023/03/09 04:46:08;;;;;;;;;;;;;;;7.76;100.00;98557.34;5576783;31;34921;-68
2023/03/09 04:49:19;;;;;;;;;;;;;;;7.80;100.00;98528.72;5589361;31;34278;-67
2023/03/09 04:52:30;;;;;;;;;;;;;;;7.91;100.00;98535.28;5589454;31;34502;-67
2023/03/09 04:55:37;;;;;;;;;;;;;;;7.79;100.00;98548.22;5590018;31;34567;-69
2023/03/09 04:58:45;;;;;;;;;;;;;;;7.86;100.00;98543.78;5589406;31;34200;-67
2023/03/09 05:01:55;;;;;;;;;;;;;;;7.75;100.00;98539.03;5589411;31;34331;-67
2023/03/09 05:05:05;;;;;;;;;;;;;;;7.68;100.00;98554.84;5589375;31;34694;-66
2023/03/09 05:08:14;;;;;;;;;;;;;;;7.73;100.00;98547.16;5590088;31;34371;-67
2023/03/09 05:11:20;;;;;;;;;;;;;;;7.77;100.00;98553.69;5589914;31;34922;-67
2023/03/09 05:14:29;;;;;;;;;;;;;;;7.70;100.00;98555.47;5589507;31;34987;-66
2023/03/09 05:17:40;;;;;;;;;;;;;;;7.63;100.00;98557.25;5589400;31;34218;-67
2023/03/09 05:20:53;;;;;;;;;;;;;;;7.68;100.00;98546.94;5590103;31;34205;-67
2023/03/09 05:24:00;;;;;;;;;;;;;;;7.63;100.00;98545.87;5589314;31;34201;-67
2023/03/09 05:27:07;;;;;;;;;;;;;;;7.74;100.00;98555.91;5589865;31;33937;-67
2023/03/09 05:30:13;;;;;;;;;;;;;;;7.72;100.00;98547.34;5589129;31;34836;-67
2023/03/09 05:33:22;;;;;;;;;;;;;;;7.64;100.00;98556.25;5589104;31;34252;-67
2023/03/09 05:36:31;;;;;;;;;;;;;;;7.63;100.00;98570.47;5589197;31;34302;-66
2023/03/09 05:39:40;;;;;;;;;;;;;;;7.68;100.00;98567.22;5589873;31;35022;-67
2023/03/09 05:42:46;;;;;;;;;;;;;;;7.67;100.00;98560.31;5589763;31;34243;-66
2023/03/09 05:45:54;;;;;;;;;;;;;;;7.73;100.00;98541.91;5589026;31;34275;-66
2023/03/09 05:49:01;;;;;;;;;;;;;;;7.84;100.00;98557.16;5589775;31;33819;-67
2023/03/09 05:52:08;;;;;;;;;;;;;;;7.99;100.00;98554.41;5576238;31;33209;-66
2023/03/09 05:55:18;;;;;;;;;;;;;;;8.07;100.00;98540.25;5588735;31;33064;-68
2023/03/09 05:58:26;;;;;;;;;;;;;;;8.10;100.00;98530.09;5588377;31;35266;-67
2023/03/09 06:01:31;;;;;;;;;;;;;;;8.18;100.00;98550.25;5588362;31;34335;-66
2023/03/09 06:04:39;;;;;;;;;;;;;;;8.27;100.00;98554.34;5588624;31;34255;-67
2023/03/09 06:07:45;;;;;;;;;;;;;;;8.35;100.00;98540.97;5588465;31;34903;-66
2023/03/09 06:10:51;;;;;;;;;;;;;;;8.52;100.00;98538.81;5588074;31;34844;-66
2023/03/09 06:13:57;;;;;;;;;;;;;;;8.67;100.00;98526.22;5588165;31;34212;-67
2023/03/09 06:17:07;;;;;;;;;;;;;;;8.81;100.00;98535.78;5588503;31;34313;-67
2023/03/09 06:20:13;;;;;;;;;;;;;;;8.85;100.00;98554.75;5588098;31;32924;-67
2023/03/09 06:23:22;;;;;;;;;;;;;;;9.01;100.00;98551.69;5574751;31;33468;-67
2023/03/09 06:26:27;;;;;;;;;;;;;;;9.00;100.00;98563.31;5575792;31;34389;-65
2023/03/09 06:29:32;;;;;;;;;;;;;;;9.16;100.00;98581.41;5588282;31;34964;-65
2023/03/09 06:32:37;;;;;;;;;;;;;;;9.29;100.00;98572.69;5588863;31;34916;-66
2023/03/09 06:35:44;;;;;;;;;;;;;;;9.50;100.00;98554.75;5588725;31;34204;-66
2023/03/09 06:38:49;;;;;;;;;;;;;;;9.65;100.00;98564.31;5588824;31;35120;-68
2023/03/09 06:41:57;;;;;;;;;;;;;;;9.75;100.00;98577.94;5587953;31;33966;-66
2023/03/09 06:45:03;;;;;;;;;;;;;;;9.88;100.00;98568.13;5587698;31;33448;-66
2023/03/09 06:48:08;;;;;;;;;;;;;;;9.89;100.00;98567.09;5573778;31;34521;-67
2023/03/09 06:51:13;;;;;;;;;;;;;;;9.92;100.00;98574.63;5575413;31;33194;-66
2023/03/09 06:54:18;;;;;;;;;;;;;;;10.17;100.00;98588.06;5587783;31;33213;-67
2023/03/09 06:57:23;;;;;;;;;;;;;;;10.19;100.00;98593.97;5587709;31;34869;-67
2023/03/09 07:00:28;;;;;;;;;;;;;;;10.25;100.00;98584.37;5588305;31;34159;-67
2023/03/09 07:03:33;;;;;;;;;;;;;;;10.24;100.00;98586.22;5588440;31;34077;-66
2023/03/09 07:06:37;;;;;;;;;;;;;;;10.17;100.00;98588.06;5588092;31;34336;-66
2023/03/09 07:09:42;;;;;;;;;;;;;;;10.26;100.00;98586.00;5574630;31;32889;-68
2023/03/09 07:12:48;;;;;;;;;;;;;;;10.36;100.00;98576.56;5587358;31;33929;-66
2023/03/09 07:15:53;;;;;;;;;;;;;;;10.37;100.00;98582.69;5587262;31;34157;-66
2023/03/09 07:18:59;;;;;;;;;;;;;;;10.29;100.00;98586.38;5587387;31;34273;-66
2023/03/09 07:22:03;;;;;;;;;;;;;;;10.28;100.00;98584.75;5586243;31;34463;-66
2023/03/09 07:25:08;;;;;;;;;;;;;;;10.41;100.00;98583.87;5587580;31;35572;-66
2023/03/09 07:28:13;;;;;;;;;;;;;;;10.52;100.00;98590.37;5587135;31;34170;-68
2023/03/09 07:31:17;;;;;;;;;;;;;;;10.50;100.00;98598.56;5586803;31;33849;-67
2023/03/09 07:34:24;;;;;;;;;;;;;;;10.46;100.00;98600.78;5586665;31;35153;-67
2023/03/09 07:37:29;;;;;;;;;;;;;;;10.52;100.00;98614.22;5587723;31;34682;-67
2023/03/09 07:40:36;;;;;;;;;;;;;;;10.48;100.00;98621.78;5587682;31;34192;-67
2023/03/09 07:43:43;;;;;;;;;;;;;;;10.50;100.00;98630.38;5587441;31;33899;-67
2023/03/09 07:46:49;;;;;;;;;;;;;;;10.55;100.00;98627.09;5587709;31;34228;-67
2023/03/09 07:49:55;;;;;;;;;;;;;;;10.49;100.00;98606.72;5586674;31;34583;-67
2023/03/09 07:52:59;;;;;;;;;;;;;;;10.81;100.00;98608.38;5587543;31;33919;-67
2023/03/09 07:56:05;;;;;;;;;;;;;;;10.99;100.00;98605.81;5573667;31;35117;-67
2023/03/09 07:59:19;;;;;;;;;;;;;;;11.15;100.00;98607.16;5573467;31;33443;-66
2023/03/09 08:02:25;;;;;;;;;;;;;;;11.21;100.00;98615.09;5589497;31;33057;-67
2023/03/09 08:05:29;;;;;;;;;;;;;;;11.27;100.00;98616.88;5589574;31;33211;-67
2023/03/09 08:08:34;;;;;;;;;;;;;;;11.34;100.00;98609.69;5588531;31;35728;-67
2023/03/09 08:11:39;;;;;;;;;;;;;;;11.42;100.00;98607.81;5589350;31;34334;-68
2023/03/09 08:14:43;;;;;;;;;;;;;;;11.36;100.00;98609.47;5576654;31;33024;-68
2023/03/09 08:17:48;;;;;;;;;;;;;;;11.52;100.00;98624.84;5589384;31;34960;-68
2023/03/09 08:20:52;;;;;;;;;;;;;;;11.50;100.00;98628.75;5589645;31;34407;-67
2023/03/09 08:23:58;;;;;;;;;;;;;;;11.63;100.00;98637.44;5590302;31;34219;-68
2023/03/09 08:27:03;;;;;;;;;;;;;;;11.71;100.00;98658.41;5589696;31;34263;-67
2023/03/09 08:30:12;;;;;;;;;;;;;;;11.62;100.00;98665.03;5589588;31;34332;-68
2023/03/09 08:33:17;;;;;;;;;;;;;;;11.56;100.00;98670.41;5576629;31;35116;-68
2023/03/09 08:36:23;;;;;;;;;;;;;;;11.84;100.00;98684.09;5589210;31;33738;-68
2023/03/09 08:39:27;;;;;;;;;;;;;;;11.85;100.00;98682.25;5589241;31;34389;-67
2023/03/09 08:42:34;;;;;;;;;;;;;;;12.08;100.00;98655.88;5589216;31;34108;-67
2023/03/09 08:45:38;;;;;;;;;;;;;;;12.26;100.00;98650.56;5590059;31;35501;-66
2023/03/09 08:48:43;;;;;;;;;;;;;;;12.61;100.00;98642.84;5576424;31;34562;-66
2023/03/09 08:51:50;;;;;;;;;;;;;;;12.62;100.00;98644.47;5589518;31;33464;-66
2023/03/09 08:54:58;;;;;;;;;;;;;;;12.58;100.00;98660.06;5576400;31;34673;-68
2023/03/09 08:58:03;;;;;;;;;;;;;;;12.06;100.00;98665.91;5576456;31;35117;-67
2023/03/09 09:01:09;;;;;;;;;;;;;;;12.15;100.00;98665.41;5576584;31;35823;-67
2023/03/09 09:04:16;;;;;;;;;;;;;;;12.00;100.00;98654.34;5589224;31;35170;-67
2023/03/09 09:07:22;;;;;;;;;;;;;;;12.27;100.00;98660.19;5590017;31;34868;-67
2023/03/09 09:10:27;;;;;;;;;;;;;;;12.39;100.00;98671.69;5589799;31;34935;-67
2023/03/09 09:13:39;;;;;;;;;;;;;;;12.40;100.00;98656.56;5588761;31;34145;-67
2023/03/09 09:16:49;;;;;;;;;;;;;;;12.57;100.00;98662.94;5576769;31;35416;-67
2023/03/09 09:19:53;;;;;;;;;;;;;;;12.75;100.00;98672.75;5589166;31;34154;-67
2023/03/09 09:23:00;;;;;;;;;;;;;;;13.23;97.45;98678.91;5589017;31;34489;-67
2023/03/09 09:26:04;;;;;;;;;;;;;;;13.42;96.05;98688.47;5589828;31;34134;-67
2023/03/09 09:29:10;;;;;;;;;;;;;;;13.56;95.07;98693.59;5563374;31;33624;-67
2023/03/09 09:32:15;;;;;;;;;;;;;;;13.81;93.25;98692.38;5588700;31;32947;-67
2023/03/09 09:35:20;;;;;;;;;;;;;;;13.75;92.86;98690.63;5588978;31;35118;-68
2023/03/09 09:38:25;;;;;;;;;;;;;;;14.15;90.40;98690.78;5589375;31;34804;-68
2023/03/09 09:41:36;;;;;;;;;;;;;;;14.20;89.00;98676.75;5588866;31;34291;-68
2023/03/09 09:44:46;;;;;;;;;;;;;;;14.26;88.43;98671.31;5588756;31;32333;-68
2023/03/09 09:47:51;;;;;;;;;;;;;;;14.29;87.74;98678.03;5588628;31;34208;-70
2023/03/09 09:51:09;;;;;;;;;;;;;;;14.41;87.12;98683.41;5588914;31;34237;-67
2023/03/09 09:54:13;;;;;;;;;;;;;;;14.65;84.76;98693.00;5575944;31;35637;-68
2023/03/09 09:57:23;;;;;;;;;;;;;;;14.67;85.03;98689.03;5589133;31;34280;-68
2023/03/09 10:00:35;;;;;;;;;;;;;;;15.12;81.11;98670.44;5588290;31;35016;-68
2023/03/09 10:03:42;;;;;;;;;;;;;;;14.98;80.72;98677.13;5588516;31;33631;-67
2023/03/09 10:06:48;;;;;;;;;;;;;;;14.71;82.30;98678.72;5588266;31;34248;-68
2023/03/09 10:10:03;;;;;;;;;;;;;;;14.72;83.07;98686.47;5589428;31;34471;-67
2023/03/09 10:13:14;;;;;;;;;;;;;;;14.85;82.21;98693.41;5575249;31;32867;-68
2023/03/09 10:16:26;;;;;;;;;;;;;;;15.33;80.11;98694.88;5575303;31;33081;-68
2023/03/09 10:19:34;;;;;;;;;;;;;;;15.56;79.14;98698.28;5588949;31;32893;-68
2023/03/09 10:22:39;;;;;;;;;;;;;;;15.98;76.15;98698.69;5588549;31;34933;-68
2023/03/09 10:25:43;;;;;;;;;;;;;;;15.80;76.92;98682.91;5575673;31;34326;-68
2023/03/09 10:28:49;;;;;;;;;;;;;;;15.98;75.86;98693.34;5588537;31;34353;-68
2023/03/09 10:32:00;;;;;;;;;;;;;;;16.15;74.51;98697.91;5575688;31;34615;-67
2023/03/09 10:35:26;;;;;;;;;;;;;;;16.23;73.79;98705.50;5588369;31;34922;-67
2023/03/09 10:38:30;;;;;;;;;;;;;;;15.94;75.24;98694.91;5588030;31;34547;-67
2023/03/09 10:41:35;;;;;;;;;;;;;;;15.98;75.70;98697.87;5588186;31;35012;-69
2023/03/09 10:44:39;;;;;;;;;;;;;;;16.18;75.81;98710.78;5588107;31;34968;-67
2023/03/09 10:47:49;;;;;;;;;;;;;;;16.46;73.49;98713.31;5588105;31;34286;-67
2023/03/09 10:50:56;;;;;;;;;;;;;;;17.08;70.20;98707.75;5588914;31;35131;-68
2023/03/09 10:54:18;;;;;;;;;;;;;;;16.65;69.67;98712.06;5588925;31;34723;-69
2023/03/09 10:57:28;;;;;;;;;;;;;;;16.89;69.21;98713.41;5574816;31;34503;-69
2023/03/09 11:00:32;;;;;;;;;;;;;;;17.38;66.76;98719.59;5588036;31;34274;-67
2023/03/09 11:03:37;;;;;;;;;;;;;;;17.37;65.31;98722.56;5587453;31;34820;-68
2023/03/09 11:06:49;;;;;;;;;;;;;;;17.00;65.36;98719.72;5587821;31;34090;-68
2023/03/09 11:09:55;;;;;;;;;;;;;;;16.88;65.49;98711.00;5587862;31;35066;-69
2023/03/09 11:13:00;;;;;;;;;;;;;;;16.74;65.72;98705.22;5587644;31;34738;-67
2023/03/09 11:16:14;;;;;;;;;;;;;;;16.88;65.51;98703.78;5587723;31;35434;-67
2023/03/09 11:19:20;;;;;;;;;;;;;;;17.73;62.09;98702.28;5587137;31;33700;-67
2023/03/09 11:22:26;;;;;;;;;;;;;;;17.30;62.13;98708.53;5588147;31;34385;-66
2023/03/09 11:25:31;;;;;;;;;;;;;;;17.07;62.69;98706.13;5587435;31;34590;-67
2023/03/09 11:28:43;;;;;;;;;;;;;;;16.50;62.88;98701.09;5587458;31;34487;-67
2023/03/09 11:31:50;;;;;;;;;;;;;;;16.70;63.21;98705.94;5587391;31;34612;-67
2023/03/09 11:34:54;;;;;;;;;;;;;;;16.71;63.44;98710.22;5587605;31;33406;-67
2023/03/09 11:38:03;;;;;;;;;;;;;;;16.76;63.22;98708.44;5589616;31;32941;-68
2023/03/09 11:41:14;;;;;;;;;;;;;;;16.99;62.45;98720.78;5590617;31;34342;-67
2023/03/09 11:44:29;;;;;;;;;;;;;;;17.19;62.13;98745.13;5589834;31;33417;-67
2023/03/09 11:47:39;;;;;;;;;;;;;;;16.90;59.61;98733.78;5577220;31;34985;-67
2023/03/09 11:50:56;;;;;;;;;;;;;;;16.98;58.38;98737.91;5589777;31;34323;-68
2023/03/09 11:54:09;;;;;;;;;;;;;;;17.02;57.27;98740.91;5589689;31;34635;-68
2023/03/09 11:57:18;;;;;;;;;;;;;;;16.95;56.55;98741.88;5590612;31;33780;-69
2023/03/09 12:00:23;;;;;;;;;;;;;;;17.52;54.48;98748.72;5590482;31;34168;-68
2023/03/09 12:03:29;;;;;;;;;;;;;;;17.83;52.68;98758.72;5590431;31;34838;-67
2023/03/09 12:06:42;;;;;;;;;;;;;;;17.83;52.58;98755.22;5576184;31;34937;-67
2023/03/09 12:10:00;;;;;;;;;;;;;;;17.65;53.72;98769.81;5589568;31;33495;-67
2023/03/09 12:13:10;;;;;;;;;;;;;;;16.83;56.91;98767.19;5589410;31;33306;-67
2023/03/09 12:16:20;;;;;;;;;;;;;;;16.38;59.09;98775.31;5590572;31;34938;-68
2023/03/09 12:19:27;;;;;;;;;;;;;;;16.32;59.65;98770.94;5589655;31;34328;-68
2023/03/09 12:22:38;;;;;;;;;;;;;;;16.99;58.38;98782.41;5576686;31;33972;-67
2023/03/09 12:25:55;;;;;;;;;;;;;;;17.10;56.51;98781.47;5589795;31;33828;-69
2023/03/09 12:29:01;;;;;;;;;;;;;;;16.86;56.19;98786.22;5589601;31;34578;-66
2023/03/09 12:32:17;;;;;;;;;;;;;;;16.84;57.08;98793.72;5589501;31;34829;-67
2023/03/09 12:35:21;;;;;;;;;;;;;;;16.62;56.58;98803.56;5590190;31;34137;-66
2023/03/09 12:38:26;;;;;;;;;;;;;;;16.77;56.33;98806.47;5590197;31;33761;-67
2023/03/09 12:41:49;;;;;;;;;;;;;;;16.59;55.46;98790.66;5589757;31;34758;-67
2023/03/09 12:44:52;;;;;;;;;;;;;;;17.11;52.58;98796.47;5589808;31;34433;-68
2023/03/09 12:48:04;;;;;;;;;;;;;;;17.36;50.69;98810.22;5588408;31;34448;-67
2023/03/09 12:51:19;;;;;;;;;;;;;;;17.22;51.10;98810.84;5576328;31;35327;-66
2023/03/09 12:54:24;;;;;;;;;;;;;;;17.41;48.23;98806.78;5589386;31;34218;-67
2023/03/09 12:57:29;;;;;;;;;;;;;;;16.94;48.48;98809.12;5590224;31;34453;-67
2023/03/09 13:00:36;;;;;;;;;;;;;;;17.18;48.87;98817.75;5589967;31;35108;-67
2023/03/09 13:03:55;;;;;;;;;;;;;;;17.18;48.85;98823.09;5576282;31;33273;-66
2023/03/09 13:07:00;;;;;;;;;;;;;;;16.97;48.37;98822.00;5563708;31;32633;-67
2023/03/09 13:10:18;;;;;;;;;;;;;;;17.27;48.21;98821.63;5589905;31;34243;-66
2023/03/09 13:13:32;;;;;;;;;;;;;;;16.79;48.69;98824.97;5589532;31;34838;-66
2023/03/09 13:16:37;;;;;;;;;;;;;;;16.74;48.45;98824.91;5589227;31;34816;-66
2023/03/09 13:19:49;;;;;;;;;;;;;;;16.62;48.95;98816.12;5588675;31;34920;-66
2023/03/09 13:22:55;;;;;;;;;;;;;;;16.45;49.18;98821.47;5589543;31;34250;-65
2023/03/09 13:26:13;;;;;;;;;;;;;;;16.34;49.44;98828.53;5577271;31;33117;-67
2023/03/09 13:29:23;;;;;;;;;;;;;;;16.12;50.03;98856.22;5588880;31;34467;-66
2023/03/09 13:32:29;;;;;;;;;;;;;;;16.13;50.33;98847.12;5589087;31;35707;-67
2023/03/09 13:35:40;;;;;;;;;;;;;;;16.19;50.51;98849.66;5576350;31;33325;-66
2023/03/09 13:38:48;;;;;;;;;;;;;;;16.40;49.95;98859.69;5588778;31;34850;-67
2023/03/09 13:41:53;;;;;;;;;;;;;;;17.15;48.33;98855.75;5588522;31;36170;-67
2023/03/09 13:45:00;;;;;;;;;;;;;;;16.76;49.33;98857.59;5589747;31;34876;-67
2023/03/09 13:48:06;;;;;;;;;;;;;;;16.72;49.76;98859.13;5588611;31;34686;-67
2023/03/09 13:51:32;;;;;;;;;;;;;;;17.27;47.93;98869.88;5588714;31;33874;-68
2023/03/09 13:54:46;;;;;;;;;;;;;;;17.73;45.42;98874.75;5589126;31;34936;-66
2023/03/09 13:57:49;;;;;;;;;;;;;;;17.63;44.76;98885.38;5588962;31;34167;-66
2023/03/09 14:00:54;;;;;;;;;;;;;;;17.32;44.98;98889.50;5588722;31;33091;-66
2023/03/09 14:03:59;;;;;;;;;;;;;;;16.65;46.36;98896.81;5589236;31;34701;-66
2023/03/09 14:07:03;;;;;;;;;;;;;;;16.42;46.85;98884.31;5588647;31;34240;-67
2023/03/09 14:10:20;;;;;;;;;;;;;;;16.44;47.29;98902.81;5589067;31;34288;-66
2023/03/09 14:13:25;;;;;;;;;;;;;;;16.20;48.32;98896.78;5589305;31;34404;-66
2023/03/09 14:16:31;;;;;;;;;;;;;;;16.27;47.80;98905.47;5589152;31;34346;-64
2023/03/09 14:19:37;;;;;;;;;;;;;;;16.08;47.07;98907.53;5589154;31;34964;-67
2023/03/09 14:22:42;;;;;;;;;;;;;;;16.00;47.29;98907.91;5588884;31;34305;-65
2023/03/09 14:25:48;;;;;;;;;;;;;;;15.72;47.50;98913.25;5589063;31;34197;-67
2023/03/09 14:29:02;;;;;;;;;;;;;;;15.70;47.25;98915.31;5588391;31;34395;-68
2023/03/09 14:32:18;;;;;;;;;;;;;;;15.97;47.02;98908.41;5588338;31;34252;-67
2023/03/09 14:35:24;;;;;;;;;;;;;;;16.01;46.51;98893.50;5588032;31;34796;-67
2023/03/09 14:38:28;;;;;;;;;;;;;;;16.86;44.81;98896.06;5588604;31;34981;-66
2023/03/09 14:41:34;;;;;;;;;;;;;;;16.84;44.89;98884.78;5588044;31;34185;-67
2023/03/09 14:44:45;;;;;;;;;;;;;;;16.60;45.49;98898.59;5587931;31;34257;-67
2023/03/09 14:47:56;;;;;;;;;;;;;;;16.18;46.25;98890.03;5587948;31;32439;-68
2023/03/09 14:51:08;;;;;;;;;;;;;;;16.00;46.85;98889.19;5587818;31;33485;-65
2023/03/09 14:54:16;;;;;;;;;;;;;;;15.89;46.49;98881.19;5588361;31;34234;-65
2023/03/09 14:57:22;;;;;;;;;;;;;;;15.82;45.97;98877.88;5588435;31;33867;-66
2023/03/09 15:00:30;;;;;;;;;;;;;;;15.81;46.23;98870.91;5588238;31;35045;-67
2023/03/09 15:03:36;;;;;;;;;;;;;;;15.80;45.38;98879.97;5574973;31;34152;-65
2023/03/09 15:06:41;;;;;;;;;;;;;;;15.78;45.20;98877.50;5587064;31;33901;-66
2023/03/09 15:09:46;;;;;;;;;;;;;;;15.80;44.77;98874.59;5588047;31;34849;-67
2023/03/09 15:12:51;;;;;;;;;;;;;;;15.80;45.11;98896.81;5589498;31;34881;-66
2023/03/09 15:15:56;;;;;;;;;;;;;;;15.77;45.05;98880.44;5590398;31;34236;-66
2023/03/09 15:19:01;;;;;;;;;;;;;;;15.89;44.87;98886.56;5576395;31;32874;-66
2023/03/09 15:22:14;;;;;;;;;;;;;;;16.03;44.72;98891.38;5589883;31;34476;-66
2023/03/09 15:25:21;;;;;;;;;;;;;;;16.06;44.46;98896.28;5589802;31;33948;-66
2023/03/09 15:28:29;;;;;;;;;;;;;;;16.03;44.44;98891.38;5590358;31;34213;-65
2023/03/09 15:31:35;;;;;;;;;;;;;;;15.81;44.44;98878.91;5577250;31;34194;-66
2023/03/09 15:34:42;;;;;;;;;;;;;;;15.70;44.60;98882.44;5590288;31;34177;-67
2023/03/09 15:37:47;;;;;;;;;;;;;;;15.58;45.26;98893.16;5590393;31;34435;-67
2023/03/09 15:40:52;;;;;;;;;;;;;;;15.51;45.33;98906.66;5589345;31;33748;-66
2023/03/09 15:43:57;;;;;;;;;;;;;;;15.46;45.47;98916.38;5590464;31;34903;-66
2023/03/09 15:47:02;;;;;;;;;;;;;;;15.38;45.34;98916.75;5588961;31;34855;-66
2023/03/09 15:50:12;;;;;;;;;;;;;;;15.31;45.40;98918.72;5589965;31;34379;-67
2023/03/09 15:53:16;;;;;;;;;;;;;;;15.27;45.55;98928.25;5589209;31;35015;-66
2023/03/09 15:56:21;;;;;;;;;;;;;;;15.32;45.35;98925.69;5589798;31;34755;-66
2023/03/09 15:59:28;;;;;;;;;;;;;;;15.25;45.73;98931.16;5590480;31;34929;-66
2023/03/09 16:02:35;;;;;;;;;;;;;;;15.22;45.61;98935.13;5589436;31;34346;-65
2023/03/09 16:05:41;;;;;;;;;;;;;;;15.26;45.49;98954.16;5589951;31;34379;-67
2023/03/09 16:08:48;;;;;;;;;;;;;;;15.23;45.43;98949.28;5589390;31;34774;-67
2023/03/09 16:11:55;;;;;;;;;;;;;;;15.12;45.83;98964.25;5590140;31;34241;-66
2023/03/09 16:15:01;;;;;;;;;;;;;;;15.01;45.84;98967.72;5589609;31;33948;-67
2023/03/09 16:18:08;;;;;;;;;;;;;;;14.91;46.51;98967.47;5589561;31;33787;-67